Willard, Missouri
Current Conditions -  °F | °C
As of 1:52 PM on Thursday 23 Oct 2014 (Local Time) from KSGF Reporting Station
Overcast Overcast  
Wind Chill: 60°   Ceiling: 8000
Heat Index: 60°   Visibility: 10mi
Dew Point: 53°   Wind: 5mph
Humidity: 78%   Direction: 220°SW
Pressure: 30.14"   Gusts: NA
Location:  37.31°N, 93.43°W
Report Text: KSGF 231852Z 22004KT 10SM SCT016 OVC080 16/12 A3014 RMK AO2 SLP203 T01560117
Loading
Personal Weather Stations






























Interactive Weather Map
Tropical Storm Tracking
New forecast layout! Learn more

10-Day Weather Forecast

Advertisements
Track Severe Weather on mobile